This is the latest recevied weather packets stored in our database for station/object NO3U. If no packets are shown the sender has not sent any weather packets the latest 1 day(s).
| Time | Temp. | Humidity | Pressure | Rain* | Wind** | Luminosity | Snow |
|---|---|---|---|---|---|---|---|
| 1778036259 | 15.56° C | 91% | 1008.7 hPa | 0 mm | - | 0 W/m² | - |
| 1778035955 | 15.56° C | 90% | 1008.9 hPa | 0 mm | - | 0 W/m² | - |
| 1778035652 | 15.56° C | 90% | 1009 hPa | 0 mm | - | 0 W/m² | - |
| 1778035350 | 15.56° C | 90% | 1009.2 hPa | 0 mm | - | 0 W/m² | - |
| 1778035046 | 15.56° C | 90% | 1008.9 hPa | 0 mm | - | 0 W/m² | - |
| 1778034743 | 15.56° C | 89% | 1008.9 hPa | 0 mm | - | 0 W/m² | - |
| 1778034440 | 15.56° C | 89% | 1009 hPa | 0 mm | - | 0 W/m² | - |
| 1778034138 | 16.11° C | 89% | 1009 hPa | 0 mm | - | 0 W/m² | - |
| 1778033229 | 16.11° C | 87% | 1008.8 hPa | 0 mm | - | 0 W/m² | - |
| 1778032927 | 16.11° C | 86% | 1008.7 hPa | 0 mm | - | 0 W/m² | - |
| 1778032322 | 16.67° C | 85% | 1008.7 hPa | 0 mm | - | 0 W/m² | - |
| 1778031412 | 17.78° C | 78% | 1008.8 hPa | 0 mm | - | 0 W/m² | - |
| 1778031109 | 18.33° C | 74% | 1008.2 hPa | 0 mm | - | 0 W/m² | - |
| 1778030502 | 20.56° C | 56% | 1007.9 hPa | 0 mm | - | 0 W/m² | - |
| 1778030200 | 20.56° C | 56% | 1007.6 hPa | 0 mm | - | 0 W/m² | - |
| 1778029896 | 20.56° C | 56% | 1007.3 hPa | 0 mm | - | 0 W/m² | - |
| 1778029594 | 20.56° C | 56% | 1007.5 hPa | 0 mm | - | 0 W/m² | - |
| 1778029291 | 20° C | 58% | 1007.3 hPa | 0 mm | - | 0 W/m² | - |
| 1778028679 | 19.44° C | 61% | 1007.6 hPa | 0 mm | - | 0 W/m² | - |
| 1778028376 | 19.44° C | 64% | 1007.5 hPa | 0 mm | - | 0 W/m² | - |
| 1778028073 | 20° C | 61% | 1007.5 hPa | 0 mm | - | 0 W/m² | - |
| 1778027769 | 20° C | 60% | 1007.5 hPa | 0 mm | - | 0 W/m² | - |
| 1778027465 | 20° C | 64% | 1007.5 hPa | 0 mm | - | 1 W/m² | - |
| 1778026857 | 20° C | 66% | 1007.6 hPa | 0 mm | - | 2 W/m² | - |
| 1778026251 | 19.44° C | 68% | 1007.9 hPa | 0 mm | - | 4 W/m² | - |
* Rain latest hour (hover to see other rain measurements)
** Current wind speed in m/s (hover to see current wind gust speed)